createdAt,value
2023-04-16T00:00:53.529Z,4.40
2023-04-16T00:06:08.296Z,5.10
2023-04-16T00:11:11.722Z,5.70
2023-04-16T00:16:14.584Z,4.60
2023-04-16T00:21:17.399Z,5.30
2023-04-16T00:26:20.669Z,4.90
2023-04-16T00:31:32.989Z,5.20
2023-04-16T00:36:35.824Z,5.10
2023-04-16T00:41:38.910Z,4.50
2023-04-16T00:46:42.767Z,5.60
2023-04-16T00:51:46.427Z,5.00
2023-04-16T00:56:49.682Z,4.60
2023-04-16T01:01:53.004Z,5.30
2023-04-16T01:06:56.426Z,4.40
2023-04-16T01:11:59.272Z,4.40
2023-04-16T01:17:03.651Z,3.90
2023-04-16T01:22:06.406Z,5.00
2023-04-16T01:27:09.225Z,3.90
2023-04-16T01:32:12.044Z,4.30
2023-04-16T01:37:14.907Z,4.40
2023-04-16T01:42:17.678Z,3.90
2023-04-16T01:47:20.865Z,2.90
2023-04-16T01:52:23.638Z,5.10
2023-04-16T01:57:26.392Z,5.40
2023-04-16T02:02:29.571Z,4.60
2023-04-16T02:07:32.889Z,4.50
2023-04-16T02:12:35.639Z,4.40
2023-04-16T02:17:38.518Z,3.90
2023-04-16T02:22:42.682Z,3.60
2023-04-16T02:27:45.401Z,4.30
2023-04-16T02:32:48.248Z,5.00
2023-04-16T02:37:51.017Z,4.30
2023-04-16T02:42:54.575Z,4.00
2023-04-16T02:47:57.469Z,4.30
2023-04-16T02:53:00.325Z,3.40
2023-04-16T02:58:03.132Z,3.40
2023-04-16T03:03:06.167Z,4.30
2023-04-16T03:08:09.292Z,3.00
2023-04-16T03:13:12.112Z,3.20
2023-04-16T03:18:14.859Z,3.80
2023-04-16T03:23:17.622Z,4.00
2023-04-16T03:28:20.505Z,3.00
2023-04-16T03:33:23.610Z,3.40
2023-04-16T03:38:26.845Z,5.10
2023-04-16T03:43:29.703Z,2.80
2023-04-16T03:48:32.553Z,3.80
2023-04-16T03:53:35.351Z,3.00
2023-04-16T03:58:38.097Z,3.40
2023-04-16T04:03:41.235Z,3.90
2023-04-16T04:08:44.210Z,3.40
2023-04-16T04:13:46.964Z,3.70
2023-04-16T04:18:49.876Z,5.10
2023-04-16T04:23:53.930Z,3.90
2023-04-16T04:28:58.002Z,6.20
2023-04-16T04:34:00.779Z,4.50
2023-04-16T04:39:03.871Z,3.40
2023-04-16T04:44:07.441Z,3.10
2023-04-16T04:49:10.452Z,3.30
2023-04-16T04:54:13.566Z,4.20
2023-04-16T04:59:16.329Z,3.80
2023-04-16T05:04:19.409Z,4.50
2023-04-16T05:09:22.340Z,4.40
2023-04-16T05:14:25.154Z,4.60
2023-04-16T05:19:28.004Z,3.50
2023-04-16T05:24:30.886Z,3.60
2023-04-16T05:29:33.656Z,3.20
2023-04-16T05:34:36.434Z,4.70
2023-04-16T05:39:39.213Z,4.00
2023-04-16T05:44:42.074Z,3.40
2023-04-16T05:49:44.904Z,3.20
2023-04-16T05:54:47.664Z,2.90
2023-04-16T05:59:50.475Z,2.90
2023-04-16T06:04:53.336Z,2.60
2023-04-16T06:09:56.105Z,3.90
2023-04-16T06:14:58.861Z,3.40
2023-04-16T06:20:01.725Z,3.40
2023-04-16T06:25:04.890Z,3.10
2023-04-16T06:30:14.257Z,3.90
2023-04-16T06:35:17.207Z,4.20
2023-04-16T06:40:20.049Z,5.10
2023-04-16T06:45:22.848Z,6.10
2023-04-16T06:50:27.042Z,4.60
2023-04-16T06:55:29.831Z,5.20
2023-04-16T07:00:33.892Z,5.10
2023-04-16T07:05:36.815Z,4.30
2023-04-16T07:10:39.672Z,6.70
2023-04-16T07:15:42.625Z,5.10
2023-04-16T07:20:45.580Z,4.70
2023-04-16T07:25:48.330Z,5.40
2023-04-16T07:30:51.359Z,4.00
2023-04-16T07:35:54.727Z,5.00
2023-04-16T07:40:57.701Z,3.20
2023-04-16T07:46:00.536Z,4.40
2023-04-16T07:51:03.575Z,3.70
2023-04-16T07:56:06.895Z,4.40
2023-04-16T08:01:09.705Z,3.80
2023-04-16T08:06:12.541Z,3.30
2023-04-16T08:11:17.426Z,3.00
2023-04-16T08:16:20.494Z,2.70
2023-04-16T08:21:24.261Z,2.70
2023-04-16T08:26:27.241Z,2.50
2023-04-16T08:31:30.744Z,3.20
2023-04-16T08:36:33.633Z,2.90
2023-04-16T08:41:41.138Z,3.70
2023-04-16T08:46:46.621Z,3.20
2023-04-16T08:51:56.854Z,2.70
2023-04-16T08:57:01.560Z,4.60
2023-04-16T09:02:06.705Z,6.10
2023-04-16T09:07:11.093Z,5.40
2023-04-16T09:12:14.593Z,6.20
2023-04-16T09:17:19.407Z,4.70
2023-04-16T09:22:22.395Z,6.20
2023-04-16T09:27:28.406Z,7.10
2023-04-16T09:32:31.205Z,4.80
2023-04-16T09:37:34.048Z,4.70
2023-04-16T09:42:37.528Z,3.70
2023-04-16T09:47:45.671Z,4.70
2023-04-16T09:52:53.248Z,4.40
2023-04-16T09:58:01.200Z,5.10
2023-04-16T10:03:06.077Z,5.90
2023-04-16T10:08:17.329Z,4.10
2023-04-16T10:13:20.960Z,3.80
2023-04-16T10:18:23.995Z,4.90
2023-04-16T10:23:27.239Z,3.80
2023-04-16T10:28:30.734Z,4.10
2023-04-16T10:33:37.132Z,3.60
2023-04-16T10:39:00.811Z,4.00
2023-04-16T10:44:12.784Z,5.10
2023-04-16T10:49:21.427Z,4.30
2023-04-16T10:54:27.565Z,4.40
2023-04-16T10:59:33.468Z,3.30
2023-04-16T11:04:44.847Z,4.30
2023-04-16T11:09:51.870Z,5.50
2023-04-16T11:15:06.437Z,6.50
2023-04-16T11:20:22.860Z,5.20
2023-04-16T11:30:37.936Z,6.00
2023-04-16T11:35:41.555Z,4.80
2023-04-16T11:40:44.743Z,5.10
2023-04-16T11:46:07.474Z,5.20
2023-04-16T11:51:16.305Z,7.00
2023-04-16T11:56:30.209Z,6.60
2023-04-16T12:01:34.714Z,6.00
2023-04-16T12:06:37.771Z,5.60
2023-04-16T12:11:41.006Z,5.50
2023-04-16T12:16:43.977Z,6.70
2023-04-16T12:21:48.830Z,8.40
2023-04-16T12:27:03.430Z,8.20
2023-04-16T12:32:21.397Z,9.10
2023-04-16T12:37:24.646Z,7.30
2023-04-16T12:42:27.790Z,7.90
2023-04-16T12:47:32.595Z,7.50
2023-04-16T12:52:35.957Z,7.30
2023-04-16T12:57:38.712Z,8.90
2023-04-16T13:02:41.879Z,11.30
2023-04-16T13:07:44.996Z,8.80
2023-04-16T13:12:47.828Z,10.00
2023-04-16T13:17:50.700Z,9.50
2023-04-16T13:22:54.263Z,7.60
2023-04-16T13:27:57.610Z,9.40
2023-04-16T13:33:00.751Z,9.40
2023-04-16T13:38:04.693Z,8.40
2023-04-16T13:43:07.885Z,7.30
2023-04-16T13:48:11.164Z,7.90
2023-04-16T13:53:14.081Z,9.00
2023-04-16T13:58:16.924Z,9.40
2023-04-16T14:03:19.891Z,6.80
2023-04-16T14:08:22.869Z,8.60
2023-04-16T14:13:25.766Z,7.00
2023-04-16T14:18:28.665Z,7.10
2023-04-16T14:23:33.212Z,11.80
2023-04-16T14:28:36.505Z,8.30
2023-04-16T14:33:39.506Z,11.00
2023-04-16T14:38:43.524Z,7.70
2023-04-16T14:43:46.742Z,6.60
2023-04-16T14:48:49.513Z,7.10
2023-04-16T14:53:52.475Z,9.10
2023-04-16T14:58:55.348Z,9.20
2023-04-16T15:04:00.665Z,14.00
2023-04-16T15:09:05.162Z,7.70
2023-04-16T15:14:08.115Z,7.80
2023-04-16T15:19:11.303Z,7.70
2023-04-16T15:24:14.195Z,7.30
2023-04-16T15:29:17.293Z,7.20
2023-04-16T15:34:20.329Z,8.00
2023-04-16T15:39:23.186Z,9.60
2023-04-16T15:44:26.073Z,7.80
2023-04-16T15:49:30.147Z,8.30
2023-04-16T15:54:33.072Z,8.90
2023-04-16T15:59:36.434Z,7.40
2023-04-16T16:04:43.859Z,11.10
2023-04-16T16:09:49.666Z,9.70
2023-04-16T16:14:52.891Z,7.60
2023-04-16T16:19:57.656Z,8.80
2023-04-16T16:25:00.513Z,7.10
2023-04-16T16:30:06.693Z,7.80
2023-04-16T16:35:11.114Z,10.80
2023-04-16T16:40:14.088Z,7.70
2023-04-16T16:45:17.616Z,9.90
2023-04-16T16:50:21.087Z,8.70
2023-04-16T16:55:24.026Z,8.70
2023-04-16T17:00:27.943Z,8.80
2023-04-16T17:05:31.048Z,9.50
2023-04-16T17:10:35.602Z,13.70
2023-04-16T17:15:38.458Z,13.20
2023-04-16T17:20:41.741Z,14.80
2023-04-16T17:25:44.743Z,13.50
2023-04-16T17:30:51.661Z,10.30
2023-04-16T17:40:59.254Z,11.30
2023-04-16T17:46:02.129Z,10.50
2023-04-16T17:51:11.946Z,13.00
2023-04-16T17:56:14.955Z,13.30
2023-04-16T18:01:20.132Z,12.70
2023-04-16T18:06:23.573Z,12.60
2023-04-16T18:11:28.452Z,11.60
2023-04-16T18:16:32.835Z,11.70
2023-04-16T18:21:35.841Z,11.50
2023-04-16T18:26:41.081Z,10.10
2023-04-16T18:31:45.879Z,10.80
2023-04-16T18:36:49.329Z,9.50
2023-04-16T18:41:54.297Z,8.50
2023-04-16T18:46:57.188Z,12.20
2023-04-16T18:52:00.656Z,11.70
2023-04-16T18:57:03.499Z,13.40
2023-04-16T19:02:09.144Z,11.30
2023-04-16T19:07:13.337Z,10.40
2023-04-16T19:12:16.213Z,11.30
2023-04-16T19:17:19.086Z,12.80
2023-04-16T19:22:22.076Z,13.20
2023-04-16T19:27:29.643Z,13.00
2023-04-16T19:32:32.517Z,11.80
2023-04-16T19:37:35.560Z,13.00
2023-04-16T19:42:38.394Z,15.00
2023-04-16T19:47:41.312Z,13.40
2023-04-16T19:52:44.172Z,12.40
2023-04-16T19:57:48.178Z,13.70
2023-04-16T20:02:51.037Z,11.60
2023-04-16T20:07:54.580Z,12.80
2023-04-16T20:12:57.392Z,12.30
2023-04-16T20:18:00.407Z,11.60
2023-04-16T20:23:03.356Z,13.10
2023-04-16T20:28:06.117Z,14.80
2023-04-16T20:33:09.263Z,15.60
2023-04-16T20:38:12.172Z,14.20
2023-04-16T20:43:18.773Z,13.40
2023-04-16T20:48:21.526Z,15.10
2023-04-16T20:53:24.358Z,14.40
2023-04-16T20:58:27.516Z,17.40
2023-04-16T21:03:30.933Z,13.70
2023-04-16T21:08:34.027Z,13.60
2023-04-16T21:13:36.832Z,12.60
2023-04-16T21:18:39.625Z,14.20
2023-04-16T21:23:42.452Z,13.60
2023-04-16T21:28:45.373Z,13.40
2023-04-16T21:33:48.381Z,13.40
2023-04-16T21:38:51.161Z,16.20
2023-04-16T21:43:54.024Z,14.60
2023-04-16T21:48:56.802Z,14.70
2023-04-16T21:53:59.533Z,14.60
2023-04-16T21:59:02.351Z,15.50
2023-04-16T22:04:07.422Z,14.00
2023-04-16T22:09:10.560Z,14.70
2023-04-16T22:14:14.791Z,16.00
2023-04-16T22:19:21.759Z,13.60
2023-04-16T22:24:24.814Z,13.90
2023-04-16T22:29:27.633Z,14.00
2023-04-16T22:34:30.565Z,15.00
2023-04-16T22:39:33.709Z,12.60
2023-04-16T22:44:37.120Z,13.10
2023-04-16T22:49:39.861Z,15.50
2023-04-16T22:54:42.659Z,14.90
2023-04-16T22:59:45.537Z,16.20
2023-04-16T23:04:48.420Z,14.00
2023-04-16T23:09:51.316Z,14.00
2023-04-16T23:14:54.219Z,14.20
2023-04-16T23:19:57.203Z,12.40
2023-04-16T23:24:59.964Z,17.00
2023-04-16T23:30:03.661Z,12.60
2023-04-16T23:35:07.488Z,12.20
2023-04-16T23:40:11.177Z,13.60
2023-04-16T23:45:14.049Z,12.50
2023-04-16T23:50:16.903Z,12.90
2023-04-16T23:55:19.759Z,9.90
